sensor_id;sensor_type;location;lat;lon;timestamp;temperature;humidity
4896;DHT22;2463;49.948;8.472;2023-05-29T00:00:47;16.70;99.90
4896;DHT22;2463;49.948;8.472;2023-05-29T00:03:14;16.70;99.90
4896;DHT22;2463;49.948;8.472;2023-05-29T00:05:41;16.70;99.90
4896;DHT22;2463;49.948;8.472;2023-05-29T00:08:08;16.70;99.90
4896;DHT22;2463;49.948;8.472;2023-05-29T00:10:34;16.70;99.90
4896;DHT22;2463;49.948;8.472;2023-05-29T00:13:03;16.80;99.90
4896;DHT22;2463;49.948;8.472;2023-05-29T00:15:32;16.80;99.90
4896;DHT22;2463;49.948;8.472;2023-05-29T00:17:59;16.80;99.90
4896;DHT22;2463;49.948;8.472;2023-05-29T00:20:27;16.80;99.90
4896;DHT22;2463;49.948;8.472;2023-05-29T00:22:55;16.80;99.90
4896;DHT22;2463;49.948;8.472;2023-05-29T00:25:22;16.80;99.90
4896;DHT22;2463;49.948;8.472;2023-05-29T00:27:48;16.80;99.90
4896;DHT22;2463;49.948;8.472;2023-05-29T00:30:15;16.80;99.90
4896;DHT22;2463;49.948;8.472;2023-05-29T00:32:42;16.90;99.90
4896;DHT22;2463;49.948;8.472;2023-05-29T00:35:08;16.90;99.90
4896;DHT22;2463;49.948;8.472;2023-05-29T00:37:35;16.90;99.90
4896;DHT22;2463;49.948;8.472;2023-05-29T00:40:03;16.90;99.90
4896;DHT22;2463;49.948;8.472;2023-05-29T00:42:30;16.90;99.90
4896;DHT22;2463;49.948;8.472;2023-05-29T00:44:57;16.80;99.90
4896;DHT22;2463;49.948;8.472;2023-05-29T00:47:24;16.90;99.90
4896;DHT22;2463;49.948;8.472;2023-05-29T00:49:51;16.90;99.90
4896;DHT22;2463;49.948;8.472;2023-05-29T00:52:18;17.00;99.90
4896;DHT22;2463;49.948;8.472;2023-05-29T00:54:46;17.00;99.90
4896;DHT22;2463;49.948;8.472;2023-05-29T00:57:14;16.90;99.90
4896;DHT22;2463;49.948;8.472;2023-05-29T00:59:44;17.00;99.90
4896;DHT22;2463;49.948;8.472;2023-05-29T01:02:12;16.90;99.90
4896;DHT22;2463;49.948;8.472;2023-05-29T01:04:41;16.90;99.90
4896;DHT22;2463;49.948;8.472;2023-05-29T01:07:08;17.00;99.90
4896;DHT22;2463;49.948;8.472;2023-05-29T01:09:36;16.90;99.90
4896;DHT22;2463;49.948;8.472;2023-05-29T01:12:07;17.00;99.90
4896;DHT22;2463;49.948;8.472;2023-05-29T01:20:31;17.00;99.90
4896;DHT22;2463;49.948;8.472;2023-05-29T01:23:06;16.90;99.90
4896;DHT22;2463;49.948;8.472;2023-05-29T01:25:45;17.00;99.90
4896;DHT22;2463;49.948;8.472;2023-05-29T01:28:15;17.00;99.90
4896;DHT22;2463;49.948;8.472;2023-05-29T01:30:43;16.90;99.90
4896;DHT22;2463;49.948;8.472;2023-05-29T01:33:11;16.80;99.90
4896;DHT22;2463;49.948;8.472;2023-05-29T01:35:38;16.90;99.90
4896;DHT22;2463;49.948;8.472;2023-05-29T01:38:04;16.90;99.90
4896;DHT22;2463;49.948;8.472;2023-05-29T01:40:31;16.80;99.90
4896;DHT22;2463;49.948;8.472;2023-05-29T01:42:58;16.80;99.90
4896;DHT22;2463;49.948;8.472;2023-05-29T01:45:25;16.80;99.90
4896;DHT22;2463;49.948;8.472;2023-05-29T01:47:52;16.80;99.90
4896;DHT22;2463;49.948;8.472;2023-05-29T01:50:20;16.70;99.90
4896;DHT22;2463;49.948;8.472;2023-05-29T01:52:48;16.70;99.90
4896;DHT22;2463;49.948;8.472;2023-05-29T01:55:15;16.70;99.90
4896;DHT22;2463;49.948;8.472;2023-05-29T01:57:42;16.60;99.90
4896;DHT22;2463;49.948;8.472;2023-05-29T02:00:09;16.60;99.90
4896;DHT22;2463;49.948;8.472;2023-05-29T02:02:40;16.60;99.90
4896;DHT22;2463;49.948;8.472;2023-05-29T02:05:08;16.50;99.90
4896;DHT22;2463;49.948;8.472;2023-05-29T02:07:35;16.50;99.90
4896;DHT22;2463;49.948;8.472;2023-05-29T02:10:05;16.50;99.90
4896;DHT22;2463;49.948;8.472;2023-05-29T02:12:32;16.50;99.90
4896;DHT22;2463;49.948;8.472;2023-05-29T02:14:59;16.50;99.90
4896;DHT22;2463;49.948;8.472;2023-05-29T02:17:26;16.50;99.90
4896;DHT22;2463;49.948;8.472;2023-05-29T02:19:52;16.50;99.90
4896;DHT22;2463;49.948;8.472;2023-05-29T02:22:19;16.50;99.90
4896;DHT22;2463;49.948;8.472;2023-05-29T02:24:46;16.50;99.90
4896;DHT22;2463;49.948;8.472;2023-05-29T02:27:13;16.40;99.90
4896;DHT22;2463;49.948;8.472;2023-05-29T02:29:39;16.40;99.90
4896;DHT22;2463;49.948;8.472;2023-05-29T02:32:06;16.40;99.90
4896;DHT22;2463;49.948;8.472;2023-05-29T02:34:33;16.40;99.90
4896;DHT22;2463;49.948;8.472;2023-05-29T02:37:00;16.40;99.90
4896;DHT22;2463;49.948;8.472;2023-05-29T02:39:26;16.30;99.90
4896;DHT22;2463;49.948;8.472;2023-05-29T02:41:53;16.30;99.90
4896;DHT22;2463;49.948;8.472;2023-05-29T02:44:21;16.30;99.90
4896;DHT22;2463;49.948;8.472;2023-05-29T02:46:48;16.30;99.90
4896;DHT22;2463;49.948;8.472;2023-05-29T02:49:18;16.20;99.90
4896;DHT22;2463;49.948;8.472;2023-05-29T02:51:45;16.30;99.90
4896;DHT22;2463;49.948;8.472;2023-05-29T02:54:12;16.20;99.90
4896;DHT22;2463;49.948;8.472;2023-05-29T02:56:38;16.20;99.90
4896;DHT22;2463;49.948;8.472;2023-05-29T02:59:05;16.20;99.90
4896;DHT22;2463;49.948;8.472;2023-05-29T03:01:32;16.20;99.90
4896;DHT22;2463;49.948;8.472;2023-05-29T03:06:29;16.20;99.90
4896;DHT22;2463;49.948;8.472;2023-05-29T03:08:56;16.10;99.90
4896;DHT22;2463;49.948;8.472;2023-05-29T03:11:23;16.10;99.90
4896;DHT22;2463;49.948;8.472;2023-05-29T03:13:51;16.10;99.90
4896;DHT22;2463;49.948;8.472;2023-05-29T03:16:18;16.10;99.90
4896;DHT22;2463;49.948;8.472;2023-05-29T03:18:44;16.10;99.90
4896;DHT22;2463;49.948;8.472;2023-05-29T03:21:11;16.20;99.90
4896;DHT22;2463;49.948;8.472;2023-05-29T03:23:38;16.20;99.90
4896;DHT22;2463;49.948;8.472;2023-05-29T03:26:05;16.10;99.90
4896;DHT22;2463;49.948;8.472;2023-05-29T03:28:32;16.00;99.90
4896;DHT22;2463;49.948;8.472;2023-05-29T03:30:59;16.20;99.90
4896;DHT22;2463;49.948;8.472;2023-05-29T03:33:25;16.10;99.90
4896;DHT22;2463;49.948;8.472;2023-05-29T03:35:52;16.10;99.90
4896;DHT22;2463;49.948;8.472;2023-05-29T03:38:19;16.10;99.90
4896;DHT22;2463;49.948;8.472;2023-05-29T03:40:46;16.10;99.90
4896;DHT22;2463;49.948;8.472;2023-05-29T03:43:12;16.10;99.90
4896;DHT22;2463;49.948;8.472;2023-05-29T03:45:39;16.10;99.90
4896;DHT22;2463;49.948;8.472;2023-05-29T03:48:06;16.10;99.90
4896;DHT22;2463;49.948;8.472;2023-05-29T03:50:32;16.10;99.90
4896;DHT22;2463;49.948;8.472;2023-05-29T03:52:59;16.10;99.90
4896;DHT22;2463;49.948;8.472;2023-05-29T03:55:26;16.10;99.90
4896;DHT22;2463;49.948;8.472;2023-05-29T03:57:54;16.20;99.90
4896;DHT22;2463;49.948;8.472;2023-05-29T04:00:22;16.20;99.90
4896;DHT22;2463;49.948;8.472;2023-05-29T04:02:48;16.20;99.90
4896;DHT22;2463;49.948;8.472;2023-05-29T04:05:16;16.20;99.90
4896;DHT22;2463;49.948;8.472;2023-05-29T04:07:42;16.20;99.90
4896;DHT22;2463;49.948;8.472;2023-05-29T04:10:09;16.30;99.90
4896;DHT22;2463;49.948;8.472;2023-05-29T04:12:36;16.20;99.90
4896;DHT22;2463;49.948;8.472;2023-05-29T04:15:03;16.30;99.90
4896;DHT22;2463;49.948;8.472;2023-05-29T04:17:30;16.30;99.90
4896;DHT22;2463;49.948;8.472;2023-05-29T04:19:57;16.30;99.90
4896;DHT22;2463;49.948;8.472;2023-05-29T04:22:24;16.30;99.90
4896;DHT22;2463;49.948;8.472;2023-05-29T04:24:50;16.30;99.90
4896;DHT22;2463;49.948;8.472;2023-05-29T04:27:17;16.40;99.90
4896;DHT22;2463;49.948;8.472;2023-05-29T04:29:44;16.30;99.90
4896;DHT22;2463;49.948;8.472;2023-05-29T04:32:11;16.30;99.90
4896;DHT22;2463;49.948;8.472;2023-05-29T04:34:38;16.40;99.90
4896;DHT22;2463;49.948;8.472;2023-05-29T04:37:10;16.40;99.90
4896;DHT22;2463;49.948;8.472;2023-05-29T04:39:37;16.40;99.90
4896;DHT22;2463;49.948;8.472;2023-05-29T04:42:03;16.40;99.90
4896;DHT22;2463;49.948;8.472;2023-05-29T04:44:30;16.40;99.90
4896;DHT22;2463;49.948;8.472;2023-05-29T04:46:57;16.40;99.90
4896;DHT22;2463;49.948;8.472;2023-05-29T04:49:24;16.40;99.90
4896;DHT22;2463;49.948;8.472;2023-05-29T04:51:51;16.50;99.90
4896;DHT22;2463;49.948;8.472;2023-05-29T04:54:19;16.50;99.90
4896;DHT22;2463;49.948;8.472;2023-05-29T04:56:46;16.50;99.90
4896;DHT22;2463;49.948;8.472;2023-05-29T04:59:13;16.60;99.90
4896;DHT22;2463;49.948;8.472;2023-05-29T05:01:40;16.60;99.90
4896;DHT22;2463;49.948;8.472;2023-05-29T05:04:09;16.50;99.90
4896;DHT22;2463;49.948;8.472;2023-05-29T05:06:37;16.50;99.90
4896;DHT22;2463;49.948;8.472;2023-05-29T05:09:04;16.60;99.90
4896;DHT22;2463;49.948;8.472;2023-05-29T05:11:31;16.60;99.90
4896;DHT22;2463;49.948;8.472;2023-05-29T05:13:57;16.60;99.90
4896;DHT22;2463;49.948;8.472;2023-05-29T05:16:24;16.60;99.90
4896;DHT22;2463;49.948;8.472;2023-05-29T05:18:51;16.60;99.90
4896;DHT22;2463;49.948;8.472;2023-05-29T05:21:18;16.60;99.90
4896;DHT22;2463;49.948;8.472;2023-05-29T05:23:45;16.60;99.90
4896;DHT22;2463;49.948;8.472;2023-05-29T05:26:24;16.60;99.90
4896;DHT22;2463;49.948;8.472;2023-05-29T05:28:52;16.70;99.90
4896;DHT22;2463;49.948;8.472;2023-05-29T05:31:19;16.80;99.90
4896;DHT22;2463;49.948;8.472;2023-05-29T05:33:46;16.70;99.90
4896;DHT22;2463;49.948;8.472;2023-05-29T05:36:12;16.70;99.90
4896;DHT22;2463;49.948;8.472;2023-05-29T05:38:39;16.70;99.90
4896;DHT22;2463;49.948;8.472;2023-05-29T05:41:06;16.70;99.90
4896;DHT22;2463;49.948;8.472;2023-05-29T05:43:32;16.80;99.90
4896;DHT22;2463;49.948;8.472;2023-05-29T05:45:59;16.80;99.90
4896;DHT22;2463;49.948;8.472;2023-05-29T05:48:26;16.80;99.90
4896;DHT22;2463;49.948;8.472;2023-05-29T05:50:53;16.90;99.90
4896;DHT22;2463;49.948;8.472;2023-05-29T05:53:20;16.90;99.90
4896;DHT22;2463;49.948;8.472;2023-05-29T05:55:47;17.00;99.90
4896;DHT22;2463;49.948;8.472;2023-05-29T05:58:14;17.20;99.90
4896;DHT22;2463;49.948;8.472;2023-05-29T06:00:41;17.20;99.90
4896;DHT22;2463;49.948;8.472;2023-05-29T06:03:09;17.20;99.90
4896;DHT22;2463;49.948;8.472;2023-05-29T06:05:36;17.30;99.90
4896;DHT22;2463;49.948;8.472;2023-05-29T06:08:04;17.40;99.90
4896;DHT22;2463;49.948;8.472;2023-05-29T06:10:32;17.50;99.90
4896;DHT22;2463;49.948;8.472;2023-05-29T06:12:59;17.60;99.90
4896;DHT22;2463;49.948;8.472;2023-05-29T06:15:26;17.80;99.90
4896;DHT22;2463;49.948;8.472;2023-05-29T06:17:53;17.90;99.90
4896;DHT22;2463;49.948;8.472;2023-05-29T06:20:22;18.00;99.90
4896;DHT22;2463;49.948;8.472;2023-05-29T06:22:49;18.20;99.90
4896;DHT22;2463;49.948;8.472;2023-05-29T06:25:17;18.30;99.90
4896;DHT22;2463;49.948;8.472;2023-05-29T06:27:46;18.90;99.90
4896;DHT22;2463;49.948;8.472;2023-05-29T06:30:13;19.90;99.90
4896;DHT22;2463;49.948;8.472;2023-05-29T06:32:40;21.10;99.90
4896;DHT22;2463;49.948;8.472;2023-05-29T06:35:07;22.20;99.90
4896;DHT22;2463;49.948;8.472;2023-05-29T06:37:34;23.40;99.90
4896;DHT22;2463;49.948;8.472;2023-05-29T06:40:00;24.30;99.90
4896;DHT22;2463;49.948;8.472;2023-05-29T06:42:27;25.20;99.90
4896;DHT22;2463;49.948;8.472;2023-05-29T06:44:54;26.10;99.80
4896;DHT22;2463;49.948;8.472;2023-05-29T06:47:20;27.10;98.50
4896;DHT22;2463;49.948;8.472;2023-05-29T06:49:47;28.00;97.10
4896;DHT22;2463;49.948;8.472;2023-05-29T06:52:14;28.90;95.20
4896;DHT22;2463;49.948;8.472;2023-05-29T06:54:40;29.80;94.90
4896;DHT22;2463;49.948;8.472;2023-05-29T06:57:08;30.60;93.00
4896;DHT22;2463;49.948;8.472;2023-05-29T06:59:37;31.30;90.10
4896;DHT22;2463;49.948;8.472;2023-05-29T07:02:04;32.10;87.70
4896;DHT22;2463;49.948;8.472;2023-05-29T07:04:32;32.40;83.40
4896;DHT22;2463;49.948;8.472;2023-05-29T07:06:58;32.60;81.30
4896;DHT22;2463;49.948;8.472;2023-05-29T07:09:25;32.60;80.30
4896;DHT22;2463;49.948;8.472;2023-05-29T07:11:54;32.40;79.20
4896;DHT22;2463;49.948;8.472;2023-05-29T07:14:21;32.20;77.30
4896;DHT22;2463;49.948;8.472;2023-05-29T07:16:47;31.80;77.00
4896;DHT22;2463;49.948;8.472;2023-05-29T07:19:14;31.50;77.10
4896;DHT22;2463;49.948;8.472;2023-05-29T07:21:46;31.10;78.60
4896;DHT22;2463;49.948;8.472;2023-05-29T07:24:13;30.70;79.80
4896;DHT22;2463;49.948;8.472;2023-05-29T07:26:40;30.30;78.60
4896;DHT22;2463;49.948;8.472;2023-05-29T07:29:07;29.80;78.70
4896;DHT22;2463;49.948;8.472;2023-05-29T07:31:33;29.30;80.80
4896;DHT22;2463;49.948;8.472;2023-05-29T07:34:00;29.00;81.60
4896;DHT22;2463;49.948;8.472;2023-05-29T07:36:30;28.60;81.50
4896;DHT22;2463;49.948;8.472;2023-05-29T07:38:57;28.20;82.90
4896;DHT22;2463;49.948;8.472;2023-05-29T07:41:25;27.90;82.90
4896;DHT22;2463;49.948;8.472;2023-05-29T07:43:55;27.60;84.50
4896;DHT22;2463;49.948;8.472;2023-05-29T07:46:22;27.30;84.40
4896;DHT22;2463;49.948;8.472;2023-05-29T07:48:49;27.10;85.60
4896;DHT22;2463;49.948;8.472;2023-05-29T07:51:16;27.00;85.30
4896;DHT22;2463;49.948;8.472;2023-05-29T07:53:44;26.80;86.30
4896;DHT22;2463;49.948;8.472;2023-05-29T07:56:13;26.80;86.70
4896;DHT22;2463;49.948;8.472;2023-05-29T07:58:40;26.80;87.90
4896;DHT22;2463;49.948;8.472;2023-05-29T08:01:07;26.80;87.00
4896;DHT22;2463;49.948;8.472;2023-05-29T08:03:34;26.60;86.60
4896;DHT22;2463;49.948;8.472;2023-05-29T08:06:01;26.60;87.40
4896;DHT22;2463;49.948;8.472;2023-05-29T08:08:28;26.50;87.70
4896;DHT22;2463;49.948;8.472;2023-05-29T08:10:55;26.50;87.60
4896;DHT22;2463;49.948;8.472;2023-05-29T08:13:22;26.60;87.00
4896;DHT22;2463;49.948;8.472;2023-05-29T08:15:49;26.70;88.30
4896;DHT22;2463;49.948;8.472;2023-05-29T08:18:15;26.70;89.00
4896;DHT22;2463;49.948;8.472;2023-05-29T08:20:42;26.70;87.00
4896;DHT22;2463;49.948;8.472;2023-05-29T08:23:09;26.70;87.60
4896;DHT22;2463;49.948;8.472;2023-05-29T08:25:36;26.80;89.40
4896;DHT22;2463;49.948;8.472;2023-05-29T08:28:03;26.80;87.30
4896;DHT22;2463;49.948;8.472;2023-05-29T08:30:29;27.10;88.60
4896;DHT22;2463;49.948;8.472;2023-05-29T08:32:56;27.10;88.10
4896;DHT22;2463;49.948;8.472;2023-05-29T08:35:23;27.20;86.90
4896;DHT22;2463;49.948;8.472;2023-05-29T08:37:50;27.20;87.70
4896;DHT22;2463;49.948;8.472;2023-05-29T08:40:17;27.30;87.20
4896;DHT22;2463;49.948;8.472;2023-05-29T08:42:47;27.40;86.40
4896;DHT22;2463;49.948;8.472;2023-05-29T08:45:14;27.50;86.30
4896;DHT22;2463;49.948;8.472;2023-05-29T08:47:42;27.60;86.60
4896;DHT22;2463;49.948;8.472;2023-05-29T08:50:13;27.70;86.30
4896;DHT22;2463;49.948;8.472;2023-05-29T08:52:41;27.80;85.20
4896;DHT22;2463;49.948;8.472;2023-05-29T08:55:08;28.00;85.90
4896;DHT22;2463;49.948;8.472;2023-05-29T08:57:36;28.10;84.00
4896;DHT22;2463;49.948;8.472;2023-05-29T09:00:06;28.20;83.80
4896;DHT22;2463;49.948;8.472;2023-05-29T09:02:39;28.30;83.40
4896;DHT22;2463;49.948;8.472;2023-05-29T09:05:07;28.40;85.00
4896;DHT22;2463;49.948;8.472;2023-05-29T09:07:34;28.50;83.20
4896;DHT22;2463;49.948;8.472;2023-05-29T09:10:00;28.70;84.50
4896;DHT22;2463;49.948;8.472;2023-05-29T09:12:27;28.80;80.90
4896;DHT22;2463;49.948;8.472;2023-05-29T09:14:54;28.70;80.40
4896;DHT22;2463;49.948;8.472;2023-05-29T09:17:20;28.80;82.10
4896;DHT22;2463;49.948;8.472;2023-05-29T09:19:48;29.00;82.80
4896;DHT22;2463;49.948;8.472;2023-05-29T09:22:15;29.10;82.90
4896;DHT22;2463;49.948;8.472;2023-05-29T09:24:46;29.20;81.40
4896;DHT22;2463;49.948;8.472;2023-05-29T09:27:13;29.30;79.80
4896;DHT22;2463;49.948;8.472;2023-05-29T09:29:42;29.30;79.50
4896;DHT22;2463;49.948;8.472;2023-05-29T09:32:14;28.90;79.00
4896;DHT22;2463;49.948;8.472;2023-05-29T09:34:41;28.90;75.50
4896;DHT22;2463;49.948;8.472;2023-05-29T09:37:09;28.90;79.60
4896;DHT22;2463;49.948;8.472;2023-05-29T09:42:10;28.80;78.30
4896;DHT22;2463;49.948;8.472;2023-05-29T09:44:37;28.70;79.70
4896;DHT22;2463;49.948;8.472;2023-05-29T09:47:03;28.60;80.80
4896;DHT22;2463;49.948;8.472;2023-05-29T09:49:32;28.80;79.20
4896;DHT22;2463;49.948;8.472;2023-05-29T09:51:59;28.70;78.50
4896;DHT22;2463;49.948;8.472;2023-05-29T09:54:27;28.70;79.40
4896;DHT22;2463;49.948;8.472;2023-05-29T09:57:01;28.60;79.20
4896;DHT22;2463;49.948;8.472;2023-05-29T09:59:31;28.60;78.00
4896;DHT22;2463;49.948;8.472;2023-05-29T10:02:03;28.60;78.90
4896;DHT22;2463;49.948;8.472;2023-05-29T10:04:31;28.70;80.50
4896;DHT22;2463;49.948;8.472;2023-05-29T10:07:09;28.80;80.70
4896;DHT22;2463;49.948;8.472;2023-05-29T10:09:42;29.10;79.90
4896;DHT22;2463;49.948;8.472;2023-05-29T10:12:11;29.30;81.70
4896;DHT22;2463;49.948;8.472;2023-05-29T10:14:41;29.30;76.00
4896;DHT22;2463;49.948;8.472;2023-05-29T10:17:12;29.40;75.80
4896;DHT22;2463;49.948;8.472;2023-05-29T10:19:40;29.50;77.50
4896;DHT22;2463;49.948;8.472;2023-05-29T10:22:09;29.50;77.20
4896;DHT22;2463;49.948;8.472;2023-05-29T10:24:37;29.50;78.50
4896;DHT22;2463;49.948;8.472;2023-05-29T10:27:04;29.70;79.50
4896;DHT22;2463;49.948;8.472;2023-05-29T10:29:36;29.60;75.20
4896;DHT22;2463;49.948;8.472;2023-05-29T10:40:06;30.00;74.80
4896;DHT22;2463;49.948;8.472;2023-05-29T10:42:47;30.10;72.60
4896;DHT22;2463;49.948;8.472;2023-05-29T10:50:41;30.60;74.00
4896;DHT22;2463;49.948;8.472;2023-05-29T10:53:16;30.70;73.30
4896;DHT22;2463;49.948;8.472;2023-05-29T10:55:44;30.60;73.00
4896;DHT22;2463;49.948;8.472;2023-05-29T10:58:18;30.50;72.60
4896;DHT22;2463;49.948;8.472;2023-05-29T11:00:45;30.50;71.30
4896;DHT22;2463;49.948;8.472;2023-05-29T11:03:15;30.20;67.70
4896;DHT22;2463;49.948;8.472;2023-05-29T11:06:02;30.10;68.50
4896;DHT22;2463;49.948;8.472;2023-05-29T11:08:46;30.10;70.30
4896;DHT22;2463;49.948;8.472;2023-05-29T11:13:56;29.80;68.40
4896;DHT22;2463;49.948;8.472;2023-05-29T11:18:56;30.10;66.20
4896;DHT22;2463;49.948;8.472;2023-05-29T11:23:59;30.30;65.80
4896;DHT22;2463;49.948;8.472;2023-05-29T11:26:34;30.50;66.80
4896;DHT22;2463;49.948;8.472;2023-05-29T11:29:04;30.70;65.30
4896;DHT22;2463;49.948;8.472;2023-05-29T11:31:33;30.80;64.40
4896;DHT22;2463;49.948;8.472;2023-05-29T11:34:02;30.90;64.10
4896;DHT22;2463;49.948;8.472;2023-05-29T11:36:34;30.70;62.80
4896;DHT22;2463;49.948;8.472;2023-05-29T11:39:01;30.80;63.70
4896;DHT22;2463;49.948;8.472;2023-05-29T11:41:28;31.00;64.40
4896;DHT22;2463;49.948;8.472;2023-05-29T11:44:02;31.00;62.70
4896;DHT22;2463;49.948;8.472;2023-05-29T11:46:30;30.80;63.20
4896;DHT22;2463;49.948;8.472;2023-05-29T11:48:59;31.00;64.50
4896;DHT22;2463;49.948;8.472;2023-05-29T11:51:26;30.80;63.60
4896;DHT22;2463;49.948;8.472;2023-05-29T11:53:53;30.90;63.80
4896;DHT22;2463;49.948;8.472;2023-05-29T11:56:28;30.80;64.00
4896;DHT22;2463;49.948;8.472;2023-05-29T11:58:57;30.80;67.10
4896;DHT22;2463;49.948;8.472;2023-05-29T12:01:27;30.60;66.70
4896;DHT22;2463;49.948;8.472;2023-05-29T12:03:54;30.20;67.50
4896;DHT22;2463;49.948;8.472;2023-05-29T12:06:34;30.10;68.10
4896;DHT22;2463;49.948;8.472;2023-05-29T12:09:04;30.20;68.70
4896;DHT22;2463;49.948;8.472;2023-05-29T12:11:31;30.10;67.50
4896;DHT22;2463;49.948;8.472;2023-05-29T12:13:59;29.80;69.60
4896;DHT22;2463;49.948;8.472;2023-05-29T12:16:30;29.70;68.50
4896;DHT22;2463;49.948;8.472;2023-05-29T12:18:58;29.60;69.50
4896;DHT22;2463;49.948;8.472;2023-05-29T12:21:27;29.60;68.50
4896;DHT22;2463;49.948;8.472;2023-05-29T12:23:54;29.70;69.80
4896;DHT22;2463;49.948;8.472;2023-05-29T12:26:39;29.90;70.20
4896;DHT22;2463;49.948;8.472;2023-05-29T12:29:06;30.10;68.30
4896;DHT22;2463;49.948;8.472;2023-05-29T12:31:33;30.00;68.00
4896;DHT22;2463;49.948;8.472;2023-05-29T12:34:06;29.60;68.20
4896;DHT22;2463;49.948;8.472;2023-05-29T12:36:33;29.50;69.40
4896;DHT22;2463;49.948;8.472;2023-05-29T12:39:05;29.30;69.00
4896;DHT22;2463;49.948;8.472;2023-05-29T12:41:35;29.40;71.60
4896;DHT22;2463;49.948;8.472;2023-05-29T12:44:04;29.60;69.30
4896;DHT22;2463;49.948;8.472;2023-05-29T12:46:39;29.80;66.60
4896;DHT22;2463;49.948;8.472;2023-05-29T12:49:13;29.90;68.50
4896;DHT22;2463;49.948;8.472;2023-05-29T12:51:41;29.90;67.90
4896;DHT22;2463;49.948;8.472;2023-05-29T12:54:13;30.10;68.20
4896;DHT22;2463;49.948;8.472;2023-05-29T12:56:41;30.10;68.10
4896;DHT22;2463;49.948;8.472;2023-05-29T12:59:09;30.30;69.90
4896;DHT22;2463;49.948;8.472;2023-05-29T13:01:36;30.40;66.40
4896;DHT22;2463;49.948;8.472;2023-05-29T13:04:07;30.60;65.00
4896;DHT22;2463;49.948;8.472;2023-05-29T13:06:37;30.70;63.50
4896;DHT22;2463;49.948;8.472;2023-05-29T13:09:04;30.60;64.90
4896;DHT22;2463;49.948;8.472;2023-05-29T13:11:34;30.50;66.40
4896;DHT22;2463;49.948;8.472;2023-05-29T13:14:03;30.50;64.20
4896;DHT22;2463;49.948;8.472;2023-05-29T13:16:30;30.50;62.70
4896;DHT22;2463;49.948;8.472;2023-05-29T13:18:57;30.10;64.10
4896;DHT22;2463;49.948;8.472;2023-05-29T13:21:24;29.80;62.40
4896;DHT22;2463;49.948;8.472;2023-05-29T13:23:50;29.60;63.00
4896;DHT22;2463;49.948;8.472;2023-05-29T13:26:17;29.50;63.50
4896;DHT22;2463;49.948;8.472;2023-05-29T13:28:44;29.30;63.40
4896;DHT22;2463;49.948;8.472;2023-05-29T13:31:10;29.40;62.90
4896;DHT22;2463;49.948;8.472;2023-05-29T13:33:37;29.60;62.70
4896;DHT22;2463;49.948;8.472;2023-05-29T13:36:04;29.70;62.10
4896;DHT22;2463;49.948;8.472;2023-05-29T13:38:31;29.30;62.20
4896;DHT22;2463;49.948;8.472;2023-05-29T13:40:58;28.90;60.90
4896;DHT22;2463;49.948;8.472;2023-05-29T13:43:25;28.90;64.50
4896;DHT22;2463;49.948;8.472;2023-05-29T13:46:08;29.10;62.00
4896;DHT22;2463;49.948;8.472;2023-05-29T13:48:35;29.10;64.10
4896;DHT22;2463;49.948;8.472;2023-05-29T13:51:01;29.10;63.70
4896;DHT22;2463;49.948;8.472;2023-05-29T13:53:28;29.00;64.70
4896;DHT22;2463;49.948;8.472;2023-05-29T13:55:55;29.10;67.50
4896;DHT22;2463;49.948;8.472;2023-05-29T13:58:22;29.00;66.80
4896;DHT22;2463;49.948;8.472;2023-05-29T14:00:49;28.80;64.00
4896;DHT22;2463;49.948;8.472;2023-05-29T14:03:15;28.80;67.50
4896;DHT22;2463;49.948;8.472;2023-05-29T14:05:42;28.60;64.90
4896;DHT22;2463;49.948;8.472;2023-05-29T14:08:09;28.30;62.40
4896;DHT22;2463;49.948;8.472;2023-05-29T14:10:36;28.40;64.90
4896;DHT22;2463;49.948;8.472;2023-05-29T14:13:02;28.40;66.50
4896;DHT22;2463;49.948;8.472;2023-05-29T14:15:29;28.30;63.80
4896;DHT22;2463;49.948;8.472;2023-05-29T14:17:56;28.30;66.10
4896;DHT22;2463;49.948;8.472;2023-05-29T14:20:23;28.20;64.70
4896;DHT22;2463;49.948;8.472;2023-05-29T14:22:51;28.30;68.90
4896;DHT22;2463;49.948;8.472;2023-05-29T14:25:17;28.40;68.40
4896;DHT22;2463;49.948;8.472;2023-05-29T14:27:44;28.50;69.00
4896;DHT22;2463;49.948;8.472;2023-05-29T14:30:11;28.30;68.10
4896;DHT22;2463;49.948;8.472;2023-05-29T14:32:38;28.30;70.20
4896;DHT22;2463;49.948;8.472;2023-05-29T14:35:04;28.20;69.90
4896;DHT22;2463;49.948;8.472;2023-05-29T14:37:31;28.10;66.90
4896;DHT22;2463;49.948;8.472;2023-05-29T14:39:58;28.20;67.50
4896;DHT22;2463;49.948;8.472;2023-05-29T14:42:25;28.30;66.90
4896;DHT22;2463;49.948;8.472;2023-05-29T14:44:51;28.40;66.30
4896;DHT22;2463;49.948;8.472;2023-05-29T14:47:18;28.60;71.00
4896;DHT22;2463;49.948;8.472;2023-05-29T14:49:45;28.60;69.40
4896;DHT22;2463;49.948;8.472;2023-05-29T14:52:12;28.50;68.70
4896;DHT22;2463;49.948;8.472;2023-05-29T14:54:38;28.20;71.10
4896;DHT22;2463;49.948;8.472;2023-05-29T14:57:05;28.00;69.40
4896;DHT22;2463;49.948;8.472;2023-05-29T14:59:32;27.80;72.60
4896;DHT22;2463;49.948;8.472;2023-05-29T15:01:59;27.70;72.20
4896;DHT22;2463;49.948;8.472;2023-05-29T15:04:26;27.60;73.60
4896;DHT22;2463;49.948;8.472;2023-05-29T15:06:53;27.30;75.00
4896;DHT22;2463;49.948;8.472;2023-05-29T15:09:30;27.40;75.70
4896;DHT22;2463;49.948;8.472;2023-05-29T15:11:57;27.50;72.80
4896;DHT22;2463;49.948;8.472;2023-05-29T15:14:24;27.40;73.60
4896;DHT22;2463;49.948;8.472;2023-05-29T15:16:51;27.30;75.70
4896;DHT22;2463;49.948;8.472;2023-05-29T15:19:17;27.40;74.00
4896;DHT22;2463;49.948;8.472;2023-05-29T15:21:44;27.60;73.20
4896;DHT22;2463;49.948;8.472;2023-05-29T15:24:11;27.70;73.60
4896;DHT22;2463;49.948;8.472;2023-05-29T15:26:38;27.70;75.30
4896;DHT22;2463;49.948;8.472;2023-05-29T15:29:05;27.50;76.00
4896;DHT22;2463;49.948;8.472;2023-05-29T15:31:32;27.40;78.40
4896;DHT22;2463;49.948;8.472;2023-05-29T15:33:58;27.40;73.50
4896;DHT22;2463;49.948;8.472;2023-05-29T15:36:25;27.50;76.50
4896;DHT22;2463;49.948;8.472;2023-05-29T15:38:52;27.40;76.40
4896;DHT22;2463;49.948;8.472;2023-05-29T15:41:19;27.30;78.30
4896;DHT22;2463;49.948;8.472;2023-05-29T15:43:46;27.30;78.50
4896;DHT22;2463;49.948;8.472;2023-05-29T15:46:13;27.10;78.80
4896;DHT22;2463;49.948;8.472;2023-05-29T15:48:39;27.10;75.60
4896;DHT22;2463;49.948;8.472;2023-05-29T15:51:06;27.00;75.50
4896;DHT22;2463;49.948;8.472;2023-05-29T15:53:33;27.00;75.20
4896;DHT22;2463;49.948;8.472;2023-05-29T15:55:59;26.90;74.90
4896;DHT22;2463;49.948;8.472;2023-05-29T15:58:26;26.80;74.60
4896;DHT22;2463;49.948;8.472;2023-05-29T16:00:53;26.80;75.10
4896;DHT22;2463;49.948;8.472;2023-05-29T16:03:19;26.70;76.20
4896;DHT22;2463;49.948;8.472;2023-05-29T16:05:46;26.70;77.80
4896;DHT22;2463;49.948;8.472;2023-05-29T16:08:13;26.80;77.10
4896;DHT22;2463;49.948;8.472;2023-05-29T16:10:40;26.70;78.20
4896;DHT22;2463;49.948;8.472;2023-05-29T16:13:07;26.80;76.60
4896;DHT22;2463;49.948;8.472;2023-05-29T16:15:34;26.70;77.20
4896;DHT22;2463;49.948;8.472;2023-05-29T16:18:00;26.60;79.50
4896;DHT22;2463;49.948;8.472;2023-05-29T16:20:27;26.50;79.50
4896;DHT22;2463;49.948;8.472;2023-05-29T16:22:55;26.60;79.60
4896;DHT22;2463;49.948;8.472;2023-05-29T16:25:22;26.60;79.90
4896;DHT22;2463;49.948;8.472;2023-05-29T16:27:49;26.50;80.80
4896;DHT22;2463;49.948;8.472;2023-05-29T16:30:16;26.40;80.10
4896;DHT22;2463;49.948;8.472;2023-05-29T16:32:43;26.30;80.90
4896;DHT22;2463;49.948;8.472;2023-05-29T16:35:10;26.10;82.50
4896;DHT22;2463;49.948;8.472;2023-05-29T16:37:36;26.20;81.40